createdAt,value
2023-01-20T00:01:24.595Z,97877.63
2023-01-20T00:03:52.863Z,97882.72
2023-01-20T00:06:20.080Z,97875.59
2023-01-20T00:08:51.154Z,97874.13
2023-01-20T00:11:18.625Z,97880.47
2023-01-20T00:13:45.078Z,97885.94
2023-01-20T00:16:12.040Z,97888.69
2023-01-20T00:18:39.860Z,97893.63
2023-01-20T00:21:13.085Z,97897.66
2023-01-20T00:23:40.961Z,97902.19
2023-01-20T00:26:10.805Z,97898.25
2023-01-20T00:28:37.829Z,97899.63
2023-01-20T00:31:22.781Z,97901.66
2023-01-20T00:33:50.981Z,97898.56
2023-01-20T00:36:18.992Z,97901.84
2023-01-20T00:38:45.458Z,97906.00
2023-01-20T00:41:12.707Z,97908.91
2023-01-20T00:43:39.421Z,97904.38
2023-01-20T00:46:06.561Z,97913.00
2023-01-20T00:48:34.112Z,97916.78
2023-01-20T00:51:01.339Z,97913.63
2023-01-20T00:53:28.113Z,97925.28
2023-01-20T00:55:54.620Z,97923.91
2023-01-20T00:58:21.389Z,97916.66
2023-01-20T01:00:49.484Z,97920.00
2023-01-20T01:03:16.507Z,97924.88
2023-01-20T01:05:43.259Z,97922.78
2023-01-20T01:08:09.881Z,97929.31
2023-01-20T01:10:36.416Z,97932.44
2023-01-20T01:13:04.263Z,97938.41
2023-01-20T01:15:31.165Z,97937.84
2023-01-20T01:17:58.799Z,97937.94
2023-01-20T01:20:26.166Z,97942.75
2023-01-20T01:22:52.622Z,97937.72
2023-01-20T01:25:19.727Z,97931.91
2023-01-20T01:27:46.303Z,97940.66
2023-01-20T01:30:13.102Z,97940.38
2023-01-20T01:32:39.889Z,97940.28
2023-01-20T01:35:06.737Z,97952.56
2023-01-20T01:37:33.257Z,97954.53
2023-01-20T01:39:59.723Z,97959.13
2023-01-20T01:42:26.740Z,97967.41
2023-01-20T01:45:20.296Z,97963.06
2023-01-20T01:47:52.923Z,97961.53
2023-01-20T01:50:35.201Z,97968.69
2023-01-20T01:53:01.766Z,97967.19
2023-01-20T01:55:31.334Z,97976.59
2023-01-20T01:57:59.786Z,97970.50
2023-01-20T02:00:26.624Z,97977.00
2023-01-20T02:02:54.676Z,97977.44
2023-01-20T02:05:22.851Z,97982.50
2023-01-20T02:07:50.019Z,97983.72
2023-01-20T02:10:17.431Z,97991.25
2023-01-20T02:12:47.281Z,97994.19
2023-01-20T02:15:14.378Z,97992.44
2023-01-20T02:18:24.830Z,97986.88
2023-01-20T02:21:24.190Z,97991.06
2023-01-20T02:24:22.891Z,97994.31
2023-01-20T02:27:08.571Z,97997.81
2023-01-20T02:30:03.980Z,98000.09
2023-01-20T02:32:49.234Z,98006.53
2023-01-20T02:35:25.647Z,98014.25
2023-01-20T02:38:12.599Z,98008.88
2023-01-20T02:40:46.138Z,98026.34
2023-01-20T02:43:15.651Z,98027.75
2023-01-20T02:45:52.842Z,98021.13
2023-01-20T02:48:53.428Z,98023.06
2023-01-20T02:55:11.860Z,98029.03
2023-01-20T02:57:52.599Z,98028.03
2023-01-20T03:00:42.852Z,98035.94
2023-01-20T03:03:14.090Z,98039.75
2023-01-20T03:05:45.745Z,98029.88
2023-01-20T03:08:13.086Z,98041.22
2023-01-20T03:10:42.221Z,98033.91
2023-01-20T03:13:18.891Z,98045.88
2023-01-20T03:16:00.446Z,98048.34
2023-01-20T03:18:29.464Z,98049.03
2023-01-20T03:20:58.701Z,98052.44
2023-01-20T03:23:28.011Z,98058.88
2023-01-20T03:25:55.298Z,98055.97
2023-01-20T03:28:21.744Z,98066.84
2023-01-20T03:30:48.627Z,98067.00
2023-01-20T03:33:17.482Z,98067.31
2023-01-20T03:35:44.391Z,98070.97
2023-01-20T03:38:11.089Z,98068.91
2023-01-20T03:40:53.746Z,98065.22
2023-01-20T03:43:29.412Z,98072.00
2023-01-20T03:46:02.547Z,98080.13
2023-01-20T03:48:41.906Z,98083.00
2023-01-20T03:51:13.739Z,98081.81
2023-01-20T03:53:51.035Z,98083.22
2023-01-20T03:56:51.216Z,98092.03
2023-01-20T03:59:20.451Z,98094.69
2023-01-20T04:01:47.270Z,98090.69
2023-01-20T04:04:19.268Z,98096.56
2023-01-20T04:06:48.903Z,98105.47
2023-01-20T04:09:24.867Z,98102.66
2023-01-20T04:11:51.601Z,98105.25
2023-01-20T04:14:18.135Z,98105.16
2023-01-20T04:16:52.471Z,98106.66
2023-01-20T04:19:18.862Z,98101.97
2023-01-20T04:22:17.795Z,98114.75
2023-01-20T04:24:52.897Z,98114.75
2023-01-20T04:27:19.352Z,98107.00
2023-01-20T04:29:46.448Z,98118.38
2023-01-20T04:32:12.924Z,98119.94
2023-01-20T04:34:39.556Z,98124.88
2023-01-20T04:37:05.943Z,98117.34
2023-01-20T04:39:32.361Z,98119.69
2023-01-20T04:41:58.747Z,98114.28
2023-01-20T04:44:25.187Z,98119.69
2023-01-20T04:46:56.658Z,98132.84
2023-01-20T04:49:23.063Z,98131.69
2023-01-20T04:51:49.456Z,98129.09
2023-01-20T04:54:15.904Z,98127.66
2023-01-20T04:56:43.248Z,98134.97
2023-01-20T04:59:09.762Z,98134.03
2023-01-20T05:01:36.345Z,98133.06
2023-01-20T05:04:02.838Z,98134.59
2023-01-20T05:06:29.221Z,98131.56
2023-01-20T05:08:55.667Z,98139.28
2023-01-20T05:11:22.160Z,98147.75
2023-01-20T05:13:48.570Z,98146.63
2023-01-20T05:16:15.069Z,98146.72
2023-01-20T05:18:41.506Z,98150.19
2023-01-20T05:21:08.734Z,98154.53
2023-01-20T05:23:35.481Z,98154.69
2023-01-20T05:26:01.918Z,98155.25
2023-01-20T05:28:28.323Z,98157.59
2023-01-20T05:30:55.058Z,98168.28
2023-01-20T05:33:21.531Z,98164.78
2023-01-20T05:35:47.984Z,98180.53
2023-01-20T05:38:14.410Z,98180.97
2023-01-20T05:40:40.817Z,98170.31
2023-01-20T05:43:07.221Z,98177.94
2023-01-20T05:45:33.687Z,98177.47
2023-01-20T05:48:00.583Z,98177.63
2023-01-20T05:50:28.174Z,98182.88
2023-01-20T05:52:54.592Z,98180.75
2023-01-20T05:55:21.628Z,98192.25
2023-01-20T05:57:48.014Z,98186.41
2023-01-20T06:00:14.853Z,98194.88
2023-01-20T06:02:41.826Z,98197.34
2023-01-20T06:05:08.426Z,98202.84
2023-01-20T06:07:34.893Z,98198.25
2023-01-20T06:10:02.422Z,98199.44
2023-01-20T06:12:28.831Z,98206.03
2023-01-20T06:14:55.239Z,98207.06
2023-01-20T06:17:21.716Z,98207.53
2023-01-20T06:19:48.143Z,98214.59
2023-01-20T06:22:15.498Z,98218.25
2023-01-20T06:24:42.023Z,98218.88
2023-01-20T06:27:09.397Z,98214.44
2023-01-20T06:29:36.043Z,98214.34
2023-01-20T06:32:02.587Z,98214.34
2023-01-20T06:34:29.014Z,98231.16
2023-01-20T06:36:56.055Z,98232.78
2023-01-20T06:39:22.657Z,98229.84
2023-01-20T06:41:49.161Z,98229.25
2023-01-20T06:44:16.677Z,98232.16
2023-01-20T06:46:43.161Z,98238.06
2023-01-20T06:49:09.775Z,98244.19
2023-01-20T06:51:36.311Z,98241.84
2023-01-20T06:54:02.750Z,98244.63
2023-01-20T06:56:29.281Z,98250.53
2023-01-20T06:58:55.729Z,98252.63
2023-01-20T07:01:25.247Z,98252.25
2023-01-20T07:03:52.067Z,98250.41
2023-01-20T07:06:31.671Z,98256.06
2023-01-20T07:08:59.625Z,98265.66
2023-01-20T07:11:26.994Z,98271.06
2023-01-20T07:13:53.439Z,98269.91
2023-01-20T07:16:20.212Z,98274.34
2023-01-20T07:18:51.703Z,98299.06
2023-01-20T07:21:19.318Z,98293.16
2023-01-20T07:23:46.278Z,98290.22
2023-01-20T07:26:18.119Z,98297.75
2023-01-20T07:28:44.689Z,98298.44
2023-01-20T07:31:19.723Z,98306.56
2023-01-20T07:33:46.760Z,98310.91
2023-01-20T07:36:14.666Z,98314.09
2023-01-20T07:38:41.313Z,98322.63
2023-01-20T07:41:16.405Z,98313.06
2023-01-20T07:43:44.312Z,98323.53
2023-01-20T07:46:11.316Z,98320.97
2023-01-20T07:48:38.239Z,98318.38
2023-01-20T07:51:07.470Z,98318.25
2023-01-20T07:53:52.153Z,98321.47
2023-01-20T07:56:24.703Z,98319.34
2023-01-20T07:58:51.897Z,98331.72
2023-01-20T08:01:22.830Z,98340.13
2023-01-20T08:03:49.847Z,98340.94
2023-01-20T08:06:19.192Z,98348.38
2023-01-20T08:08:46.061Z,98348.38
2023-01-20T08:11:14.203Z,98354.03
2023-01-20T08:13:41.461Z,98354.09
2023-01-20T08:16:10.673Z,98362.66
2023-01-20T08:18:38.029Z,98357.56
2023-01-20T08:21:08.033Z,98362.50
2023-01-20T08:23:35.743Z,98361.97
2023-01-20T08:26:05.296Z,98362.25
2023-01-20T08:28:36.314Z,98359.81
2023-01-20T08:31:09.900Z,98368.28
2023-01-20T08:33:37.198Z,98377.28
2023-01-20T08:36:16.119Z,98375.59
2023-01-20T08:38:43.718Z,98374.53
2023-01-20T08:41:18.304Z,98379.22
2023-01-20T08:43:45.046Z,98380.72
2023-01-20T08:46:13.819Z,98384.00
2023-01-20T08:48:42.081Z,98379.88
2023-01-20T08:51:14.034Z,98392.81
2023-01-20T08:53:40.682Z,98386.06
2023-01-20T08:56:07.512Z,98387.06
2023-01-20T08:58:34.867Z,98387.41
2023-01-20T09:01:14.050Z,98379.97
2023-01-20T09:03:45.064Z,98385.88
2023-01-20T09:06:16.622Z,98378.63
2023-01-20T09:08:43.402Z,98393.09
2023-01-20T09:11:15.477Z,98384.56
2023-01-20T09:13:42.400Z,98393.00
2023-01-20T09:16:12.098Z,98393.56
2023-01-20T09:18:38.928Z,98393.75
2023-01-20T09:21:08.752Z,98399.41
2023-01-20T09:23:36.799Z,98407.28
2023-01-20T09:26:04.700Z,98402.38
2023-01-20T09:28:31.636Z,98398.53
2023-01-20T09:30:59.344Z,98411.16
2023-01-20T09:33:25.885Z,98403.91
2023-01-20T09:35:56.344Z,98403.09
2023-01-20T09:38:41.463Z,98404.13
2023-01-20T09:41:46.455Z,98402.50
2023-01-20T09:44:43.157Z,98414.28
2023-01-20T09:47:21.333Z,98406.44
2023-01-20T09:50:34.521Z,98411.50
2023-01-20T09:53:15.272Z,98411.97
2023-01-20T09:55:56.921Z,98414.94
2023-01-20T09:58:32.491Z,98417.66
2023-01-20T10:01:12.802Z,98415.75
2023-01-20T10:03:56.994Z,98418.19
2023-01-20T10:06:31.730Z,98419.16
2023-01-20T10:09:06.208Z,98425.19
2023-01-20T10:11:41.218Z,98421.63
2023-01-20T10:14:19.784Z,98424.00
2023-01-20T10:17:25.071Z,98425.75
2023-01-20T10:19:58.913Z,98429.53
2023-01-20T10:22:40.071Z,98419.53
2023-01-20T10:25:13.295Z,98423.28
2023-01-20T10:27:49.160Z,98427.63
2023-01-20T10:30:16.695Z,98423.50
2023-01-20T10:32:54.957Z,98429.41
2023-01-20T10:35:25.859Z,98428.53
2023-01-20T10:37:53.248Z,98433.59
2023-01-20T10:40:35.072Z,98426.88
2023-01-20T10:43:10.034Z,98423.88
2023-01-20T10:45:56.773Z,98422.94
2023-01-20T10:49:03.389Z,98418.84
2023-01-20T10:51:45.408Z,98415.03
2023-01-20T10:54:29.963Z,98410.25
2023-01-20T10:57:00.133Z,98414.00
2023-01-20T10:59:41.049Z,98412.28
2023-01-20T11:02:30.307Z,98407.13
2023-01-20T11:05:00.927Z,98414.13
2023-01-20T11:07:29.856Z,98411.50
2023-01-20T11:09:56.340Z,98420.16
2023-01-20T11:12:27.263Z,98416.84
2023-01-20T11:15:00.254Z,98418.47
2023-01-20T11:17:26.785Z,98416.72
2023-01-20T11:19:56.703Z,98425.34
2023-01-20T11:22:30.265Z,98431.50
2023-01-20T11:24:59.020Z,98433.41
2023-01-20T11:27:29.791Z,98433.81
2023-01-20T11:30:03.779Z,98432.81
2023-01-20T11:32:35.132Z,98437.75
2023-01-20T11:35:18.712Z,98429.00
2023-01-20T11:37:45.212Z,98431.69
2023-01-20T11:40:19.857Z,98433.53
2023-01-20T11:42:48.280Z,98430.06
2023-01-20T11:45:32.480Z,98431.16
2023-01-20T11:48:08.121Z,98426.25
2023-01-20T11:50:57.329Z,98427.56
2023-01-20T11:53:26.628Z,98429.06
2023-01-20T11:55:59.457Z,98430.84
2023-01-20T11:58:29.075Z,98425.34
2023-01-20T12:01:05.393Z,98429.25
2023-01-20T12:03:50.329Z,98428.50
2023-01-20T12:06:35.143Z,98426.75
2023-01-20T12:09:15.471Z,98425.41
2023-01-20T12:11:59.383Z,98429.44
2023-01-20T12:14:34.117Z,98424.47
2023-01-20T12:17:16.580Z,98426.88
2023-01-20T12:20:06.266Z,98424.03
2023-01-20T12:22:47.658Z,98425.63
2023-01-20T12:25:22.348Z,98428.13
2023-01-20T12:27:56.912Z,98425.19
2023-01-20T12:30:41.166Z,98425.13
2023-01-20T12:33:23.165Z,98430.88
2023-01-20T12:36:19.336Z,98425.19
2023-01-20T12:39:02.737Z,98425.34
2023-01-20T12:41:56.850Z,98424.50
2023-01-20T12:44:38.397Z,98421.91
2023-01-20T12:47:21.977Z,98420.81
2023-01-20T12:50:23.772Z,98427.84
2023-01-20T12:53:16.954Z,98429.59
2023-01-20T12:56:10.576Z,98425.41
2023-01-20T12:59:20.839Z,98414.88
2023-01-20T13:02:20.567Z,98420.88
2023-01-20T13:04:54.728Z,98414.00
2023-01-20T13:07:33.280Z,98412.38
2023-01-20T13:10:39.574Z,98412.69
2023-01-20T13:13:55.669Z,98408.16
2023-01-20T13:16:43.354Z,98408.06
2023-01-20T13:19:24.085Z,98408.84
2023-01-20T13:22:06.501Z,98410.53
2023-01-20T13:24:34.901Z,98405.53
2023-01-20T13:27:01.917Z,98412.13
2023-01-20T13:29:34.297Z,98404.22
2023-01-20T13:32:00.991Z,98407.09
2023-01-20T13:34:33.189Z,98414.38
2023-01-20T13:37:02.475Z,98407.06
2023-01-20T13:39:40.829Z,98399.69
2023-01-20T13:42:38.199Z,98397.50
2023-01-20T13:45:14.436Z,98400.53
2023-01-20T13:47:54.700Z,98402.22
2023-01-20T13:50:28.698Z,98413.84
2023-01-20T13:52:57.853Z,98412.00
2023-01-20T13:55:49.227Z,98402.75
2023-01-20T13:58:24.514Z,98412.81
2023-01-20T14:01:06.045Z,98411.91
2023-01-20T14:03:39.826Z,98414.91
2023-01-20T14:06:13.364Z,98417.75
2023-01-20T14:08:45.871Z,98418.00
2023-01-20T14:11:15.596Z,98420.06
2023-01-20T14:13:52.149Z,98428.31
2023-01-20T14:16:25.598Z,98422.84
2023-01-20T14:18:54.297Z,98427.72
2023-01-20T14:21:24.062Z,98424.41
2023-01-20T14:23:51.507Z,98427.63
2023-01-20T14:26:31.555Z,98425.06
2023-01-20T14:29:00.652Z,98427.88
2023-01-20T14:31:43.613Z,98433.88
2023-01-20T14:34:28.193Z,98432.94
2023-01-20T14:36:59.980Z,98435.38
2023-01-20T14:39:30.894Z,98428.56
2023-01-20T14:42:01.424Z,98427.84
2023-01-20T14:44:32.554Z,98432.06
2023-01-20T14:47:01.318Z,98433.56
2023-01-20T14:49:33.269Z,98422.97
2023-01-20T14:52:01.122Z,98434.25
2023-01-20T14:54:29.609Z,98431.56
2023-01-20T14:56:58.227Z,98432.63
2023-01-20T14:59:25.930Z,98436.94
2023-01-20T15:02:01.580Z,98433.28
2023-01-20T15:04:36.098Z,98442.59
2023-01-20T15:07:03.435Z,98453.69
2023-01-20T15:09:33.177Z,98459.31
2023-01-20T15:12:30.585Z,98472.72
2023-01-20T15:15:21.849Z,98482.47
2023-01-20T15:18:23.327Z,98478.53
2023-01-20T15:20:51.429Z,98481.50
2023-01-20T15:23:38.907Z,98476.06
2023-01-20T15:26:24.401Z,98478.66
2023-01-20T15:28:50.939Z,98482.03
2023-01-20T15:31:17.492Z,98479.84
2023-01-20T15:33:44.530Z,98478.63
2023-01-20T15:36:22.112Z,98489.97
2023-01-20T15:38:49.132Z,98490.47
2023-01-20T15:41:15.554Z,98490.00
2023-01-20T15:43:42.524Z,98494.16
2023-01-20T15:46:14.226Z,98492.91
2023-01-20T15:48:41.335Z,98489.13
2023-01-20T15:51:13.539Z,98497.78
2023-01-20T15:53:40.380Z,98499.69
2023-01-20T15:56:16.156Z,98504.88
2023-01-20T15:58:42.653Z,98507.53
2023-01-20T16:01:13.389Z,98505.13
2023-01-20T16:03:39.830Z,98508.38
2023-01-20T16:06:15.467Z,98509.69
2023-01-20T16:08:46.039Z,98505.81
2023-01-20T16:11:13.773Z,98504.75
2023-01-20T16:13:40.957Z,98505.75
2023-01-20T16:16:14.381Z,98500.75
2023-01-20T16:18:41.447Z,98498.50
2023-01-20T16:21:10.995Z,98504.34
2023-01-20T16:23:37.782Z,98499.56
2023-01-20T16:26:15.926Z,98507.09
2023-01-20T16:28:42.370Z,98508.03
2023-01-20T16:31:12.006Z,98509.44
2023-01-20T16:33:38.586Z,98508.44
2023-01-20T16:36:11.842Z,98511.66
2023-01-20T16:38:40.515Z,98509.81
2023-01-20T16:44:15.735Z,98513.44
2023-01-20T16:46:42.619Z,98510.94
2023-01-20T16:49:09.466Z,98506.72
2023-01-20T16:51:36.266Z,98514.19
2023-01-20T16:54:03.177Z,98510.13
2023-01-20T16:56:32.639Z,98507.84
2023-01-20T16:59:01.840Z,98509.13
2023-01-20T17:01:30.296Z,98509.19
2023-01-20T17:04:02.370Z,98510.66
2023-01-20T17:06:32.088Z,98520.44
2023-01-20T17:09:00.643Z,98519.88
2023-01-20T17:11:32.973Z,98517.09
2023-01-20T17:14:02.128Z,98515.78
2023-01-20T17:16:31.401Z,98521.66
2023-01-20T17:19:02.091Z,98525.63
2023-01-20T17:21:33.471Z,98528.03
2023-01-20T17:24:02.355Z,98532.56
2023-01-20T17:26:29.654Z,98522.75
2023-01-20T17:28:58.632Z,98530.81
2023-01-20T17:31:25.853Z,98528.34
2023-01-20T17:33:56.721Z,98525.19
2023-01-20T17:36:23.385Z,98531.84
2023-01-20T17:38:49.929Z,98528.84
2023-01-20T17:41:16.687Z,98536.78
2023-01-20T17:43:46.358Z,98531.78
2023-01-20T17:46:19.834Z,98532.94
2023-01-20T17:48:47.003Z,98535.19
2023-01-20T17:51:16.127Z,98534.56
2023-01-20T17:53:43.360Z,98540.44
2023-01-20T17:56:13.042Z,98541.16
2023-01-20T17:58:41.403Z,98536.84
2023-01-20T18:01:21.887Z,98540.38
2023-01-20T18:03:50.689Z,98547.22
2023-01-20T18:06:19.702Z,98547.97
2023-01-20T18:08:52.606Z,98548.56
2023-01-20T18:11:20.436Z,98550.63
2023-01-20T18:13:50.106Z,98549.31
2023-01-20T18:16:19.169Z,98551.09
2023-01-20T18:18:47.611Z,98555.78
2023-01-20T18:21:23.025Z,98547.84
2023-01-20T18:23:51.109Z,98548.81
2023-01-20T18:26:22.791Z,98553.88
2023-01-20T18:28:53.187Z,98553.50
2023-01-20T18:31:22.016Z,98549.94
2023-01-20T18:33:54.671Z,98548.59
2023-01-20T18:36:28.189Z,98545.81
2023-01-20T18:39:04.099Z,98543.84
2023-01-20T18:41:32.687Z,98548.13
2023-01-20T18:44:00.761Z,98548.81
2023-01-20T18:46:31.036Z,98545.06
2023-01-20T18:48:58.042Z,98553.78
2023-01-20T18:51:27.406Z,98547.97
2023-01-20T18:53:57.225Z,98550.44
2023-01-20T18:56:25.078Z,98547.03
2023-01-20T18:58:53.723Z,98551.91
2023-01-20T19:01:23.992Z,98549.31
2023-01-20T19:03:52.245Z,98549.38
2023-01-20T19:06:27.978Z,98549.19
2023-01-20T19:08:56.676Z,98550.97
2023-01-20T19:11:29.327Z,98548.34
2023-01-20T19:13:56.177Z,98550.38
2023-01-20T19:16:28.195Z,98549.75
2023-01-20T19:18:57.390Z,98548.50
2023-01-20T19:21:25.601Z,98549.50
2023-01-20T19:23:54.663Z,98548.31
2023-01-20T19:26:22.752Z,98555.53
2023-01-20T19:28:56.575Z,98558.81
2023-01-20T19:31:23.764Z,98550.72
2023-01-20T19:33:50.627Z,98552.72
2023-01-20T19:36:19.196Z,98555.78
2023-01-20T19:38:45.835Z,98555.56
2023-01-20T19:41:14.879Z,98555.53
2023-01-20T19:43:42.385Z,98555.78
2023-01-20T19:46:14.987Z,98565.47
2023-01-20T19:48:42.412Z,98564.25
2023-01-20T19:51:12.400Z,98562.53
2023-01-20T19:53:40.184Z,98562.59
2023-01-20T19:56:12.952Z,98557.50
2023-01-20T19:58:40.277Z,98565.75
2023-01-20T20:01:13.170Z,98565.66
2023-01-20T20:03:40.307Z,98577.38
2023-01-20T20:06:08.481Z,98581.28
2023-01-20T20:08:37.974Z,98575.56
2023-01-20T20:11:04.522Z,98580.53
2023-01-20T20:13:31.018Z,98581.47
2023-01-20T20:16:04.761Z,98577.53
2023-01-20T20:18:32.061Z,98585.56
2023-01-20T20:20:58.941Z,98580.97
2023-01-20T20:23:25.848Z,98586.53
2023-01-20T20:25:56.232Z,98587.31
2023-01-20T20:28:28.125Z,98589.56
2023-01-20T20:30:55.484Z,98589.91
2023-01-20T20:33:25.298Z,98595.75
2023-01-20T20:35:51.836Z,98603.91
2023-01-20T20:38:18.731Z,98598.72
2023-01-20T20:40:45.221Z,98598.91
2023-01-20T20:43:11.789Z,98602.91
2023-01-20T20:45:38.538Z,98604.28
2023-01-20T20:48:05.753Z,98606.03
2023-01-20T20:50:32.404Z,98599.69
2023-01-20T20:52:59.145Z,98607.66
2023-01-20T20:55:26.333Z,98604.19
2023-01-20T20:57:52.967Z,98606.03
2023-01-20T21:00:23.431Z,98606.47
2023-01-20T21:02:50.376Z,98611.06
2023-01-20T21:05:18.863Z,98613.31
2023-01-20T21:07:45.863Z,98617.66
2023-01-20T21:10:14.059Z,98618.47
2023-01-20T21:12:40.983Z,98617.66
2023-01-20T21:15:08.786Z,98627.06
2023-01-20T21:17:35.293Z,98625.22
2023-01-20T21:20:02.098Z,98631.56
2023-01-20T21:22:28.694Z,98631.31
2023-01-20T21:24:55.237Z,98626.63
2023-01-20T21:27:21.879Z,98633.91
2023-01-20T21:29:48.329Z,98626.69
2023-01-20T21:32:15.826Z,98632.03
2023-01-20T21:34:42.389Z,98635.13
2023-01-20T21:37:09.049Z,98627.34
2023-01-20T21:39:35.589Z,98630.75
2023-01-20T21:42:02.130Z,98634.75
2023-01-20T21:44:28.672Z,98630.97
2023-01-20T21:47:10.480Z,98637.72
2023-01-20T21:49:55.712Z,98640.31
2023-01-20T21:52:42.262Z,98636.84
2023-01-20T21:55:11.950Z,98643.00
2023-01-20T21:57:38.883Z,98643.38
2023-01-20T22:00:08.955Z,98646.84
2023-01-20T22:02:39.494Z,98644.91
2023-01-20T22:05:06.881Z,98643.44
2023-01-20T22:07:33.459Z,98653.56
2023-01-20T22:10:00.049Z,98649.56
2023-01-20T22:12:26.693Z,98655.94
2023-01-20T22:14:53.329Z,98654.69
2023-01-20T22:17:19.834Z,98660.19
2023-01-20T22:19:46.380Z,98656.28
2023-01-20T22:22:15.092Z,98652.13
2023-01-20T22:24:42.039Z,98656.97
2023-01-20T22:27:08.725Z,98662.91
2023-01-20T22:29:35.338Z,98663.38
2023-01-20T22:32:04.008Z,98671.34
2023-01-20T22:34:30.687Z,98676.78
2023-01-20T22:36:57.946Z,98665.94
2023-01-20T22:39:24.536Z,98674.31
2023-01-20T22:41:51.131Z,98669.56
2023-01-20T22:44:17.722Z,98669.81
2023-01-20T22:46:44.279Z,98680.91
2023-01-20T22:49:11.465Z,98683.44
2023-01-20T22:51:38.102Z,98682.47
2023-01-20T22:54:04.934Z,98676.34
2023-01-20T22:56:32.184Z,98690.72
2023-01-20T22:58:59.540Z,98691.44
2023-01-20T23:01:32.378Z,98686.16
2023-01-20T23:04:01.564Z,98692.22
2023-01-20T23:06:30.601Z,98698.06
2023-01-20T23:08:57.086Z,98704.06
2023-01-20T23:11:23.902Z,98695.25
2023-01-20T23:13:51.900Z,98704.44
2023-01-20T23:16:22.733Z,98700.66
2023-01-20T23:18:50.997Z,98703.13
2023-01-20T23:21:18.213Z,98707.16
2023-01-20T23:23:45.135Z,98707.16
2023-01-20T23:26:18.887Z,98707.38
2023-01-20T23:28:46.647Z,98703.72
2023-01-20T23:31:17.583Z,98711.25
2023-01-20T23:33:44.733Z,98709.38
2023-01-20T23:36:23.730Z,98710.56
2023-01-20T23:38:52.468Z,98715.16
2023-01-20T23:41:20.008Z,98714.69
2023-01-20T23:43:46.545Z,98711.84
2023-01-20T23:46:13.181Z,98719.25
2023-01-20T23:48:40.088Z,98715.38
2023-01-20T23:51:07.473Z,98711.47
2023-01-20T23:53:38.488Z,98720.66
2023-01-20T23:56:09.876Z,98722.56
2023-01-20T23:58:36.456Z,98720.44
